sensor_id;sensor_type;location;lat;lon;timestamp;temperature;humidity
17815;DHT22;9031;50.974;11.330;2023-04-03T12:44:23;10.50;44.40
17815;DHT22;9031;50.974;11.330;2023-04-03T12:46:53;8.60;48.00
17815;DHT22;9031;50.974;11.330;2023-04-03T12:49:40;7.70;50.40
17815;DHT22;9031;50.974;11.330;2023-04-03T12:52:30;8.20;49.70
17815;DHT22;9031;50.974;11.330;2023-04-03T12:54:59;12.40;40.50
17815;DHT22;9031;50.974;11.330;2023-04-03T12:57:29;13.50;35.60
17815;DHT22;9031;50.974;11.330;2023-04-03T12:59:55;14.30;35.70
17815;DHT22;9031;50.974;11.330;2023-04-03T13:02:32;11.30;40.90
17815;DHT22;9031;50.974;11.330;2023-04-03T13:05:07;8.90;45.20
17815;DHT22;9031;50.974;11.330;2023-04-03T13:07:37;10.90;40.80
17815;DHT22;9031;50.974;11.330;2023-04-03T13:12:55;16.20;33.20
17815;DHT22;9031;50.974;11.330;2023-04-03T13:15:27;14.80;32.20
17815;DHT22;9031;50.974;11.330;2023-04-03T13:17:54;11.60;37.40
17815;DHT22;9031;50.974;11.330;2023-04-03T13:20:32;9.40;42.70
17815;DHT22;9031;50.974;11.330;2023-04-03T13:23:06;11.10;41.80
17815;DHT22;9031;50.974;11.330;2023-04-03T13:25:35;12.90;37.40
17815;DHT22;9031;50.974;11.330;2023-04-03T13:28:02;10.50;42.10
17815;DHT22;9031;50.974;11.330;2023-04-03T13:30:32;8.80;46.70
17815;DHT22;9031;50.974;11.330;2023-04-03T13:33:00;7.80;49.30
17815;DHT22;9031;50.974;11.330;2023-04-03T13:35:38;7.00;52.30
17815;DHT22;9031;50.974;11.330;2023-04-03T13:38:23;7.10;52.20
17815;DHT22;9031;50.974;11.330;2023-04-03T13:40:56;8.00;50.80
17815;DHT22;9031;50.974;11.330;2023-04-03T13:43:28;10.90;43.60
17815;DHT22;9031;50.974;11.330;2023-04-03T13:48:42;13.70;35.80
17815;DHT22;9031;50.974;11.330;2023-04-03T13:53:51;8.70;47.10
17815;DHT22;9031;50.974;11.330;2023-04-03T13:56:34;7.60;50.30
17815;DHT22;9031;50.974;11.330;2023-04-03T14:02:09;7.80;51.50
17815;DHT22;9031;50.974;11.330;2023-04-03T14:04:46;8.10;51.10
17815;DHT22;9031;50.974;11.330;2023-04-03T14:07:15;8.10;50.00
17815;DHT22;9031;50.974;11.330;2023-04-03T14:09:42;11.40;43.50
17815;DHT22;9031;50.974;11.330;2023-04-03T14:12:18;11.90;38.40
17815;DHT22;9031;50.974;11.330;2023-04-03T14:14:45;9.30;45.00
17815;DHT22;9031;50.974;11.330;2023-04-03T14:17:20;7.90;50.10
17815;DHT22;9031;50.974;11.330;2023-04-03T14:19:47;6.90;53.30
17815;DHT22;9031;50.974;11.330;2023-04-03T14:22:17;6.60;53.90
17815;DHT22;9031;50.974;11.330;2023-04-03T14:24:43;6.50;54.90
17815;DHT22;9031;50.974;11.330;2023-04-03T14:27:22;6.30;54.10
17815;DHT22;9031;50.974;11.330;2023-04-03T14:29:50;6.20;54.60
17815;DHT22;9031;50.974;11.330;2023-04-03T14:32:17;6.10;54.80
17815;DHT22;9031;50.974;11.330;2023-04-03T14:34:43;7.20;53.60
17815;DHT22;9031;50.974;11.330;2023-04-03T14:37:12;8.20;48.80
17815;DHT22;9031;50.974;11.330;2023-04-03T14:39:38;8.50;48.70
17815;DHT22;9031;50.974;11.330;2023-04-03T14:42:03;9.60;46.20
17815;DHT22;9031;50.974;11.330;2023-04-03T14:44:29;9.00;46.60
17815;DHT22;9031;50.974;11.330;2023-04-03T14:59:09;7.60;51.70
17815;DHT22;9031;50.974;11.330;2023-04-03T15:01:36;6.40;54.60
17815;DHT22;9031;50.974;11.330;2023-04-03T15:04:01;6.60;54.00
17815;DHT22;9031;50.974;11.330;2023-04-03T15:06:27;6.50;53.90
17815;DHT22;9031;50.974;11.330;2023-04-03T15:08:52;6.70;54.60
17815;DHT22;9031;50.974;11.330;2023-04-03T15:11:18;6.60;55.20
17815;DHT22;9031;50.974;11.330;2023-04-03T15:13:43;6.30;55.90
17815;DHT22;9031;50.974;11.330;2023-04-03T15:16:18;6.10;57.60
17815;DHT22;9031;50.974;11.330;2023-04-03T15:18:45;5.90;57.60
17815;DHT22;9031;50.974;11.330;2023-04-03T15:21:11;6.00;56.70
17815;DHT22;9031;50.974;11.330;2023-04-03T15:23:37;5.80;57.00
17815;DHT22;9031;50.974;11.330;2023-04-03T15:26:02;6.20;55.80
17815;DHT22;9031;50.974;11.330;2023-04-03T15:28:34;6.30;55.60
17815;DHT22;9031;50.974;11.330;2023-04-03T15:31:00;6.10;56.10
17815;DHT22;9031;50.974;11.330;2023-04-03T15:33:27;5.90;55.60
17815;DHT22;9031;50.974;11.330;2023-04-03T15:35:53;6.10;55.50
17815;DHT22;9031;50.974;11.330;2023-04-03T15:38:19;7.00;54.60
17815;DHT22;9031;50.974;11.330;2023-04-03T15:40:45;8.40;49.90
17815;DHT22;9031;50.974;11.330;2023-04-03T15:43:13;8.60;49.00
17815;DHT22;9031;50.974;11.330;2023-04-03T15:45:39;8.60;48.10
17815;DHT22;9031;50.974;11.330;2023-04-03T15:48:05;8.00;49.10
17815;DHT22;9031;50.974;11.330;2023-04-03T15:50:32;7.30;49.80
17815;DHT22;9031;50.974;11.330;2023-04-03T15:52:59;6.60;51.90
17815;DHT22;9031;50.974;11.330;2023-04-03T15:55:30;6.20;53.70
17815;DHT22;9031;50.974;11.330;2023-04-03T15:57:57;6.10;54.40
17815;DHT22;9031;50.974;11.330;2023-04-03T16:00:23;5.90;55.00
17815;DHT22;9031;50.974;11.330;2023-04-03T16:02:52;5.70;56.40
17815;DHT22;9031;50.974;11.330;2023-04-03T16:05:20;5.50;57.20
17815;DHT22;9031;50.974;11.330;2023-04-03T16:07:46;5.30;57.80
17815;DHT22;9031;50.974;11.330;2023-04-03T16:10:14;5.40;58.20
17815;DHT22;9031;50.974;11.330;2023-04-03T16:12:41;5.30;59.10
17815;DHT22;9031;50.974;11.330;2023-04-03T16:15:07;5.10;58.80
17815;DHT22;9031;50.974;11.330;2023-04-03T16:17:34;5.00;58.60
17815;DHT22;9031;50.974;11.330;2023-04-03T16:20:00;5.10;58.80
17815;DHT22;9031;50.974;11.330;2023-04-03T16:22:27;5.00;59.10
17815;DHT22;9031;50.974;11.330;2023-04-03T16:24:53;4.90;60.50
17815;DHT22;9031;50.974;11.330;2023-04-03T16:27:19;4.80;60.60
17815;DHT22;9031;50.974;11.330;2023-04-03T16:29:45;4.80;61.80
17815;DHT22;9031;50.974;11.330;2023-04-03T16:32:12;4.90;60.90
17815;DHT22;9031;50.974;11.330;2023-04-03T16:34:38;4.70;61.10
17815;DHT22;9031;50.974;11.330;2023-04-03T16:37:05;4.60;61.30
17815;DHT22;9031;50.974;11.330;2023-04-03T16:39:31;4.50;62.00
17815;DHT22;9031;50.974;11.330;2023-04-03T16:41:56;4.60;61.60
17815;DHT22;9031;50.974;11.330;2023-04-03T16:44:22;4.60;61.70
17815;DHT22;9031;50.974;11.330;2023-04-03T16:46:47;4.80;60.70
17815;DHT22;9031;50.974;11.330;2023-04-03T16:49:13;4.80;61.40
17815;DHT22;9031;50.974;11.330;2023-04-03T16:51:38;4.70;61.40
17815;DHT22;9031;50.974;11.330;2023-04-03T16:54:04;4.80;62.50
17815;DHT22;9031;50.974;11.330;2023-04-03T16:56:30;4.90;61.80
17815;DHT22;9031;50.974;11.330;2023-04-03T16:58:55;4.60;62.50
17815;DHT22;9031;50.974;11.330;2023-04-03T17:01:22;4.50;64.70
17815;DHT22;9031;50.974;11.330;2023-04-03T17:03:48;4.30;63.10
17815;DHT22;9031;50.974;11.330;2023-04-03T17:06:19;4.20;64.60
17815;DHT22;9031;50.974;11.330;2023-04-03T17:08:47;4.30;65.70
17815;DHT22;9031;50.974;11.330;2023-04-03T17:11:13;4.40;64.20
17815;DHT22;9031;50.974;11.330;2023-04-03T17:13:39;4.50;64.70
17815;DHT22;9031;50.974;11.330;2023-04-03T17:16:08;4.50;63.00
17815;DHT22;9031;50.974;11.330;2023-04-03T17:18:35;4.40;62.10
17815;DHT22;9031;50.974;11.330;2023-04-03T17:21:02;4.40;63.10
17815;DHT22;9031;50.974;11.330;2023-04-03T17:23:28;4.40;62.10
17815;DHT22;9031;50.974;11.330;2023-04-03T17:25:54;4.30;63.30
17815;DHT22;9031;50.974;11.330;2023-04-03T17:28:21;4.40;64.30
17815;DHT22;9031;50.974;11.330;2023-04-03T17:30:49;4.20;63.00
17815;DHT22;9031;50.974;11.330;2023-04-03T17:33:15;4.20;65.20
17815;DHT22;9031;50.974;11.330;2023-04-03T17:35:41;4.10;65.10
17815;DHT22;9031;50.974;11.330;2023-04-03T17:38:06;4.10;65.00
17815;DHT22;9031;50.974;11.330;2023-04-03T17:40:32;4.10;63.70
17815;DHT22;9031;50.974;11.330;2023-04-03T17:42:57;4.00;63.20
17815;DHT22;9031;50.974;11.330;2023-04-03T17:45:23;4.00;62.80
17815;DHT22;9031;50.974;11.330;2023-04-03T17:47:51;4.00;62.50
17815;DHT22;9031;50.974;11.330;2023-04-03T17:50:17;3.90;61.80
17815;DHT22;9031;50.974;11.330;2023-04-03T17:52:43;3.90;61.60
17815;DHT22;9031;50.974;11.330;2023-04-03T17:55:08;4.00;61.20
17815;DHT22;9031;50.974;11.330;2023-04-03T17:57:34;4.00;61.50
17815;DHT22;9031;50.974;11.330;2023-04-03T17:59:59;3.90;61.00
17815;DHT22;9031;50.974;11.330;2023-04-03T18:02:25;3.80;62.00
17815;DHT22;9031;50.974;11.330;2023-04-03T18:04:52;3.90;62.40
17815;DHT22;9031;50.974;11.330;2023-04-03T18:07:18;3.90;62.30
17815;DHT22;9031;50.974;11.330;2023-04-03T18:09:45;3.80;63.10
17815;DHT22;9031;50.974;11.330;2023-04-03T18:12:12;3.70;64.30
17815;DHT22;9031;50.974;11.330;2023-04-03T18:14:38;3.70;64.70
17815;DHT22;9031;50.974;11.330;2023-04-03T18:17:04;3.80;64.70
17815;DHT22;9031;50.974;11.330;2023-04-03T18:19:30;4.00;64.80
17815;DHT22;9031;50.974;11.330;2023-04-03T18:22:02;3.90;64.20
17815;DHT22;9031;50.974;11.330;2023-04-03T18:24:31;3.80;65.00
17815;DHT22;9031;50.974;11.330;2023-04-03T18:27:04;3.70;65.20
17815;DHT22;9031;50.974;11.330;2023-04-03T18:29:33;3.60;66.00
17815;DHT22;9031;50.974;11.330;2023-04-03T18:32:01;3.60;66.80
17815;DHT22;9031;50.974;11.330;2023-04-03T18:34:31;3.50;66.60
17815;DHT22;9031;50.974;11.330;2023-04-03T18:36:56;3.70;67.20
17815;DHT22;9031;50.974;11.330;2023-04-03T18:39:22;3.70;66.90
17815;DHT22;9031;50.974;11.330;2023-04-03T18:41:48;3.80;67.60
17815;DHT22;9031;50.974;11.330;2023-04-03T18:44:17;3.80;67.70
17815;DHT22;9031;50.974;11.330;2023-04-03T18:46:43;3.70;67.20
17815;DHT22;9031;50.974;11.330;2023-04-03T18:49:10;3.60;68.70
17815;DHT22;9031;50.974;11.330;2023-04-03T18:51:36;3.70;67.60
17815;DHT22;9031;50.974;11.330;2023-04-03T18:54:05;3.60;68.40
17815;DHT22;9031;50.974;11.330;2023-04-03T18:56:31;3.60;69.30
17815;DHT22;9031;50.974;11.330;2023-04-03T18:58:57;3.60;69.10
17815;DHT22;9031;50.974;11.330;2023-04-03T19:01:23;3.50;68.40
17815;DHT22;9031;50.974;11.330;2023-04-03T19:03:48;3.50;69.20
17815;DHT22;9031;50.974;11.330;2023-04-03T19:06:14;3.50;68.10
17815;DHT22;9031;50.974;11.330;2023-04-03T19:08:40;3.50;68.00
17815;DHT22;9031;50.974;11.330;2023-04-03T19:11:05;3.50;67.70
17815;DHT22;9031;50.974;11.330;2023-04-03T19:13:31;3.50;68.30
17815;DHT22;9031;50.974;11.330;2023-04-03T19:15:57;3.50;68.90
17815;DHT22;9031;50.974;11.330;2023-04-03T19:18:28;3.60;69.10
17815;DHT22;9031;50.974;11.330;2023-04-03T19:20:54;3.60;68.50
17815;DHT22;9031;50.974;11.330;2023-04-03T19:23:21;3.50;68.20
17815;DHT22;9031;50.974;11.330;2023-04-03T19:25:59;3.50;68.50
17815;DHT22;9031;50.974;11.330;2023-04-03T19:28:25;3.40;68.80
17815;DHT22;9031;50.974;11.330;2023-04-03T19:30:51;3.50;69.20
17815;DHT22;9031;50.974;11.330;2023-04-03T19:33:18;3.50;69.40
17815;DHT22;9031;50.974;11.330;2023-04-03T19:35:43;3.50;68.90
17815;DHT22;9031;50.974;11.330;2023-04-03T19:38:09;3.50;69.00
17815;DHT22;9031;50.974;11.330;2023-04-03T19:40:34;3.40;69.10
17815;DHT22;9031;50.974;11.330;2023-04-03T19:43:02;3.50;68.90
17815;DHT22;9031;50.974;11.330;2023-04-03T19:45:29;3.60;69.90
17815;DHT22;9031;50.974;11.330;2023-04-03T19:47:55;3.60;66.80
17815;DHT22;9031;50.974;11.330;2023-04-03T19:50:25;3.50;68.40
17815;DHT22;9031;50.974;11.330;2023-04-03T19:52:51;3.40;67.40
17815;DHT22;9031;50.974;11.330;2023-04-03T19:55:16;3.50;68.20
17815;DHT22;9031;50.974;11.330;2023-04-03T19:57:42;3.40;67.90
17815;DHT22;9031;50.974;11.330;2023-04-03T20:00:08;3.20;69.20
17815;DHT22;9031;50.974;11.330;2023-04-03T20:02:33;3.20;69.50
17815;DHT22;9031;50.974;11.330;2023-04-03T20:04:59;3.20;70.70
17815;DHT22;9031;50.974;11.330;2023-04-03T20:07:25;3.30;71.20
17815;DHT22;9031;50.974;11.330;2023-04-03T20:09:51;3.30;71.30
17815;DHT22;9031;50.974;11.330;2023-04-03T20:12:17;3.30;71.30
17815;DHT22;9031;50.974;11.330;2023-04-03T20:14:42;3.40;70.00
17815;DHT22;9031;50.974;11.330;2023-04-03T20:17:09;3.40;71.00
17815;DHT22;9031;50.974;11.330;2023-04-03T20:19:35;3.50;68.80
17815;DHT22;9031;50.974;11.330;2023-04-03T20:22:01;3.40;70.40
17815;DHT22;9031;50.974;11.330;2023-04-03T20:24:26;3.40;70.80
17815;DHT22;9031;50.974;11.330;2023-04-03T20:26:53;3.20;70.80
17815;DHT22;9031;50.974;11.330;2023-04-03T20:29:21;3.40;71.00
17815;DHT22;9031;50.974;11.330;2023-04-03T20:31:47;3.40;70.70
17815;DHT22;9031;50.974;11.330;2023-04-03T20:34:13;3.40;71.00
17815;DHT22;9031;50.974;11.330;2023-04-03T20:36:40;3.40;72.60
17815;DHT22;9031;50.974;11.330;2023-04-03T20:39:07;3.30;71.60
17815;DHT22;9031;50.974;11.330;2023-04-03T20:41:33;3.40;71.30
17815;DHT22;9031;50.974;11.330;2023-04-03T20:44:01;3.30;73.20
17815;DHT22;9031;50.974;11.330;2023-04-03T20:46:27;3.20;73.30
17815;DHT22;9031;50.974;11.330;2023-04-03T20:48:53;3.20;73.80
17815;DHT22;9031;50.974;11.330;2023-04-03T20:51:19;3.20;72.80
17815;DHT22;9031;50.974;11.330;2023-04-03T20:53:46;3.20;72.70
17815;DHT22;9031;50.974;11.330;2023-04-03T20:56:12;3.20;72.20
17815;DHT22;9031;50.974;11.330;2023-04-03T20:58:39;3.10;72.90
17815;DHT22;9031;50.974;11.330;2023-04-03T21:01:14;3.10;73.80
17815;DHT22;9031;50.974;11.330;2023-04-03T21:03:40;3.10;74.30
17815;DHT22;9031;50.974;11.330;2023-04-03T21:21:04;3.00;74.90
17815;DHT22;9031;50.974;11.330;2023-04-03T21:23:30;3.00;75.00
17815;DHT22;9031;50.974;11.330;2023-04-03T21:25:57;3.00;75.70
17815;DHT22;9031;50.974;11.330;2023-04-03T21:28:24;3.00;75.60
17815;DHT22;9031;50.974;11.330;2023-04-03T21:30:49;3.00;75.80
17815;DHT22;9031;50.974;11.330;2023-04-03T21:33:15;2.90;76.60
17815;DHT22;9031;50.974;11.330;2023-04-03T21:35:40;3.00;75.90
17815;DHT22;9031;50.974;11.330;2023-04-03T21:38:06;3.00;75.30
17815;DHT22;9031;50.974;11.330;2023-04-03T21:40:31;2.90;75.10
17815;DHT22;9031;50.974;11.330;2023-04-03T21:42:57;2.80;76.80
17815;DHT22;9031;50.974;11.330;2023-04-03T21:45:22;2.70;71.30
17815;DHT22;9031;50.974;11.330;2023-04-03T21:47:48;2.80;70.10
17815;DHT22;9031;50.974;11.330;2023-04-03T21:50:14;2.80;72.60
17815;DHT22;9031;50.974;11.330;2023-04-03T21:52:39;2.80;71.30
17815;DHT22;9031;50.974;11.330;2023-04-03T21:55:05;2.80;66.00
17815;DHT22;9031;50.974;11.330;2023-04-03T21:57:32;2.80;65.40
17815;DHT22;9031;50.974;11.330;2023-04-03T21:59:58;2.70;66.00
17815;DHT22;9031;50.974;11.330;2023-04-03T22:02:24;2.70;65.90
17815;DHT22;9031;50.974;11.330;2023-04-03T22:04:51;2.80;65.40
17815;DHT22;9031;50.974;11.330;2023-04-03T22:07:16;2.90;66.70
17815;DHT22;9031;50.974;11.330;2023-04-03T22:09:42;2.90;65.50
17815;DHT22;9031;50.974;11.330;2023-04-03T22:12:08;2.90;66.40
17815;DHT22;9031;50.974;11.330;2023-04-03T22:14:36;2.80;64.90
17815;DHT22;9031;50.974;11.330;2023-04-03T22:17:02;2.90;65.40
17815;DHT22;9031;50.974;11.330;2023-04-03T22:19:28;3.00;66.20
17815;DHT22;9031;50.974;11.330;2023-04-03T22:21:53;2.80;67.20
17815;DHT22;9031;50.974;11.330;2023-04-03T22:24:19;2.90;64.90
17815;DHT22;9031;50.974;11.330;2023-04-03T22:26:45;2.90;65.20
17815;DHT22;9031;50.974;11.330;2023-04-03T22:29:11;2.90;63.60
17815;DHT22;9031;50.974;11.330;2023-04-03T22:31:37;2.80;65.00
17815;DHT22;9031;50.974;11.330;2023-04-03T22:34:03;2.80;64.70
17815;DHT22;9031;50.974;11.330;2023-04-03T22:36:29;2.90;64.80
17815;DHT22;9031;50.974;11.330;2023-04-03T22:38:55;2.80;65.40
17815;DHT22;9031;50.974;11.330;2023-04-03T22:41:22;2.80;66.90
17815;DHT22;9031;50.974;11.330;2023-04-03T22:43:47;2.80;66.10
17815;DHT22;9031;50.974;11.330;2023-04-03T22:46:13;2.90;67.20
17815;DHT22;9031;50.974;11.330;2023-04-03T22:48:42;3.00;66.70
17815;DHT22;9031;50.974;11.330;2023-04-03T22:51:09;3.00;66.10
17815;DHT22;9031;50.974;11.330;2023-04-03T22:53:35;3.00;66.90
17815;DHT22;9031;50.974;11.330;2023-04-03T22:56:02;2.90;66.00
17815;DHT22;9031;50.974;11.330;2023-04-03T22:58:29;2.90;67.20
17815;DHT22;9031;50.974;11.330;2023-04-03T23:01:09;2.90;66.90
17815;DHT22;9031;50.974;11.330;2023-04-03T23:03:35;2.80;67.70
17815;DHT22;9031;50.974;11.330;2023-04-03T23:06:02;2.80;69.10
17815;DHT22;9031;50.974;11.330;2023-04-03T23:08:28;2.80;69.30
17815;DHT22;9031;50.974;11.330;2023-04-03T23:10:55;2.90;68.10
17815;DHT22;9031;50.974;11.330;2023-04-03T23:13:22;2.80;69.10
17815;DHT22;9031;50.974;11.330;2023-04-03T23:15:54;2.70;68.50
17815;DHT22;9031;50.974;11.330;2023-04-03T23:18:20;2.70;68.00
17815;DHT22;9031;50.974;11.330;2023-04-03T23:20:47;2.70;67.90
17815;DHT22;9031;50.974;11.330;2023-04-03T23:23:12;2.80;68.90
17815;DHT22;9031;50.974;11.330;2023-04-03T23:25:38;2.70;71.10
17815;DHT22;9031;50.974;11.330;2023-04-03T23:28:03;2.70;71.90
17815;DHT22;9031;50.974;11.330;2023-04-03T23:30:29;2.80;71.90
17815;DHT22;9031;50.974;11.330;2023-04-03T23:32:54;2.80;72.10
17815;DHT22;9031;50.974;11.330;2023-04-03T23:35:20;2.70;71.50
17815;DHT22;9031;50.974;11.330;2023-04-03T23:37:46;2.70;71.60
17815;DHT22;9031;50.974;11.330;2023-04-03T23:40:11;2.70;72.20
17815;DHT22;9031;50.974;11.330;2023-04-03T23:42:37;2.80;72.40
17815;DHT22;9031;50.974;11.330;2023-04-03T23:45:03;2.80;72.60
17815;DHT22;9031;50.974;11.330;2023-04-03T23:47:28;2.80;71.70
17815;DHT22;9031;50.974;11.330;2023-04-03T23:49:54;2.80;71.80
17815;DHT22;9031;50.974;11.330;2023-04-03T23:52:19;2.80;71.30
17815;DHT22;9031;50.974;11.330;2023-04-03T23:54:45;2.90;70.40
17815;DHT22;9031;50.974;11.330;2023-04-03T23:57:11;3.00;70.30
17815;DHT22;9031;50.974;11.330;2023-04-03T23:59:36;2.90;71.00
